sensor_id;sensor_type;location;lat;lon;timestamp;temperature;humidity
5346;DHT22;2695;49.444;11.054;2023-04-15T00:01:12;8.80;99.90
5346;DHT22;2695;49.444;11.054;2023-04-15T00:03:44;8.80;99.90
5346;DHT22;2695;49.444;11.054;2023-04-15T00:06:13;8.80;99.90
5346;DHT22;2695;49.444;11.054;2023-04-15T00:08:41;8.90;99.90
5346;DHT22;2695;49.444;11.054;2023-04-15T00:11:09;8.80;99.90
5346;DHT22;2695;49.444;11.054;2023-04-15T00:13:39;8.90;99.90
5346;DHT22;2695;49.444;11.054;2023-04-15T00:16:08;8.90;99.90
5346;DHT22;2695;49.444;11.054;2023-04-15T00:18:37;8.90;99.90
5346;DHT22;2695;49.444;11.054;2023-04-15T00:21:05;8.90;99.90
5346;DHT22;2695;49.444;11.054;2023-04-15T00:23:33;8.90;99.90
5346;DHT22;2695;49.444;11.054;2023-04-15T00:26:02;8.90;99.90
5346;DHT22;2695;49.444;11.054;2023-04-15T00:28:30;8.90;99.90
5346;DHT22;2695;49.444;11.054;2023-04-15T00:30:59;8.90;99.90
5346;DHT22;2695;49.444;11.054;2023-04-15T00:33:27;8.90;99.90
5346;DHT22;2695;49.444;11.054;2023-04-15T00:35:55;9.00;99.90
5346;DHT22;2695;49.444;11.054;2023-04-15T00:38:23;9.10;99.90
5346;DHT22;2695;49.444;11.054;2023-04-15T00:40:51;9.00;99.90
5346;DHT22;2695;49.444;11.054;2023-04-15T00:43:19;9.00;99.90
5346;DHT22;2695;49.444;11.054;2023-04-15T00:45:47;9.10;99.90
5346;DHT22;2695;49.444;11.054;2023-04-15T00:48:18;9.00;99.90
5346;DHT22;2695;49.444;11.054;2023-04-15T00:50:47;9.00;99.90
5346;DHT22;2695;49.444;11.054;2023-04-15T00:53:15;9.00;99.90
5346;DHT22;2695;49.444;11.054;2023-04-15T00:55:43;9.00;99.90
5346;DHT22;2695;49.444;11.054;2023-04-15T00:58:11;9.10;99.90
5346;DHT22;2695;49.444;11.054;2023-04-15T01:00:39;9.10;99.90
5346;DHT22;2695;49.444;11.054;2023-04-15T01:03:07;9.10;99.90
5346;DHT22;2695;49.444;11.054;2023-04-15T01:05:37;9.00;99.90
5346;DHT22;2695;49.444;11.054;2023-04-15T01:08:05;9.00;99.90
5346;DHT22;2695;49.444;11.054;2023-04-15T01:10:34;8.80;99.90
5346;DHT22;2695;49.444;11.054;2023-04-15T01:13:02;9.00;99.90
5346;DHT22;2695;49.444;11.054;2023-04-15T01:15:30;9.00;99.90
5346;DHT22;2695;49.444;11.054;2023-04-15T01:17:58;9.00;99.90
5346;DHT22;2695;49.444;11.054;2023-04-15T01:20:27;8.90;99.90
5346;DHT22;2695;49.444;11.054;2023-04-15T01:22:57;8.90;99.90
5346;DHT22;2695;49.444;11.054;2023-04-15T01:25:30;8.90;99.90
5346;DHT22;2695;49.444;11.054;2023-04-15T01:27:59;8.90;99.90
5346;DHT22;2695;49.444;11.054;2023-04-15T01:30:28;8.90;99.90
5346;DHT22;2695;49.444;11.054;2023-04-15T01:32:56;8.90;99.90
5346;DHT22;2695;49.444;11.054;2023-04-15T01:35:24;8.90;99.90
5346;DHT22;2695;49.444;11.054;2023-04-15T01:37:53;9.00;99.90
5346;DHT22;2695;49.444;11.054;2023-04-15T01:40:21;8.90;99.90
5346;DHT22;2695;49.444;11.054;2023-04-15T01:42:50;8.90;99.90
5346;DHT22;2695;49.444;11.054;2023-04-15T01:45:18;8.90;99.90
5346;DHT22;2695;49.444;11.054;2023-04-15T01:47:47;8.90;99.90
5346;DHT22;2695;49.444;11.054;2023-04-15T01:50:15;8.90;99.90
5346;DHT22;2695;49.444;11.054;2023-04-15T01:52:43;8.90;99.90
5346;DHT22;2695;49.444;11.054;2023-04-15T01:55:11;8.90;99.90
5346;DHT22;2695;49.444;11.054;2023-04-15T01:57:39;8.90;99.90
5346;DHT22;2695;49.444;11.054;2023-04-15T02:00:11;8.90;99.90
5346;DHT22;2695;49.444;11.054;2023-04-15T02:02:39;8.90;99.90
5346;DHT22;2695;49.444;11.054;2023-04-15T02:05:08;8.90;99.90
5346;DHT22;2695;49.444;11.054;2023-04-15T02:07:36;8.90;99.90
5346;DHT22;2695;49.444;11.054;2023-04-15T02:10:05;8.90;99.90
5346;DHT22;2695;49.444;11.054;2023-04-15T02:12:33;8.90;99.90
5346;DHT22;2695;49.444;11.054;2023-04-15T02:15:01;8.90;99.90
5346;DHT22;2695;49.444;11.054;2023-04-15T02:17:33;8.80;99.90
5346;DHT22;2695;49.444;11.054;2023-04-15T02:20:01;8.80;99.90
5346;DHT22;2695;49.444;11.054;2023-04-15T02:22:30;8.80;99.90
5346;DHT22;2695;49.444;11.054;2023-04-15T02:24:59;8.80;99.90
5346;DHT22;2695;49.444;11.054;2023-04-15T02:27:27;8.80;99.90
5346;DHT22;2695;49.444;11.054;2023-04-15T02:29:56;8.80;99.90
5346;DHT22;2695;49.444;11.054;2023-04-15T02:32:24;8.80;99.90
5346;DHT22;2695;49.444;11.054;2023-04-15T02:34:53;8.70;99.90
5346;DHT22;2695;49.444;11.054;2023-04-15T02:37:22;8.80;99.90
5346;DHT22;2695;49.444;11.054;2023-04-15T02:39:52;8.70;99.90
5346;DHT22;2695;49.444;11.054;2023-04-15T02:42:21;8.70;99.90
5346;DHT22;2695;49.444;11.054;2023-04-15T02:44:49;8.70;99.90
5346;DHT22;2695;49.444;11.054;2023-04-15T02:51:13;8.70;99.90
5346;DHT22;2695;49.444;11.054;2023-04-15T02:53:41;8.70;99.90
5346;DHT22;2695;49.444;11.054;2023-04-15T02:56:09;8.70;99.90
5346;DHT22;2695;49.444;11.054;2023-04-15T02:58:39;8.70;99.90
5346;DHT22;2695;49.444;11.054;2023-04-15T03:01:07;8.70;99.90
5346;DHT22;2695;49.444;11.054;2023-04-15T03:03:35;8.70;99.90
5346;DHT22;2695;49.444;11.054;2023-04-15T03:06:03;8.70;99.90
5346;DHT22;2695;49.444;11.054;2023-04-15T03:08:33;8.70;99.90
5346;DHT22;2695;49.444;11.054;2023-04-15T03:11:02;8.70;99.90
5346;DHT22;2695;49.444;11.054;2023-04-15T03:13:30;8.70;99.90
5346;DHT22;2695;49.444;11.054;2023-04-15T03:15:58;8.70;99.90
5346;DHT22;2695;49.444;11.054;2023-04-15T03:22:14;8.70;99.90
5346;DHT22;2695;49.444;11.054;2023-04-15T03:24:43;8.70;99.90
5346;DHT22;2695;49.444;11.054;2023-04-15T03:27:11;8.70;99.90
5346;DHT22;2695;49.444;11.054;2023-04-15T03:29:39;8.70;99.90
5346;DHT22;2695;49.444;11.054;2023-04-15T03:32:08;8.70;99.90
5346;DHT22;2695;49.444;11.054;2023-04-15T03:34:36;8.70;99.90
5346;DHT22;2695;49.444;11.054;2023-04-15T03:37:04;8.60;99.90
5346;DHT22;2695;49.444;11.054;2023-04-15T03:39:33;8.60;99.90
5346;DHT22;2695;49.444;11.054;2023-04-15T03:42:03;8.60;99.90
5346;DHT22;2695;49.444;11.054;2023-04-15T03:44:31;8.80;99.90
5346;DHT22;2695;49.444;11.054;2023-04-15T03:46:59;8.70;99.90
5346;DHT22;2695;49.444;11.054;2023-04-15T03:49:28;8.70;99.90
5346;DHT22;2695;49.444;11.054;2023-04-15T03:51:56;8.70;99.90
5346;DHT22;2695;49.444;11.054;2023-04-15T03:54:24;8.80;99.90
5346;DHT22;2695;49.444;11.054;2023-04-15T03:56:52;8.80;99.90
5346;DHT22;2695;49.444;11.054;2023-04-15T03:59:23;8.80;99.90
5346;DHT22;2695;49.444;11.054;2023-04-15T04:01:51;8.80;99.90
5346;DHT22;2695;49.444;11.054;2023-04-15T04:04:20;8.70;99.90
5346;DHT22;2695;49.444;11.054;2023-04-15T04:06:48;8.80;99.90
5346;DHT22;2695;49.444;11.054;2023-04-15T04:09:16;8.80;99.90
5346;DHT22;2695;49.444;11.054;2023-04-15T04:11:44;8.70;99.90
5346;DHT22;2695;49.444;11.054;2023-04-15T04:14:12;8.70;99.90
5346;DHT22;2695;49.444;11.054;2023-04-15T04:16:41;8.70;99.90
5346;DHT22;2695;49.444;11.054;2023-04-15T04:19:10;8.60;99.90
5346;DHT22;2695;49.444;11.054;2023-04-15T04:21:41;8.70;99.90
5346;DHT22;2695;49.444;11.054;2023-04-15T04:24:09;8.70;99.90
5346;DHT22;2695;49.444;11.054;2023-04-15T04:26:37;8.60;99.90
5346;DHT22;2695;49.444;11.054;2023-04-15T04:29:05;8.60;99.90
5346;DHT22;2695;49.444;11.054;2023-04-15T04:31:33;8.60;99.90
5346;DHT22;2695;49.444;11.054;2023-04-15T04:34:03;8.70;99.90
5346;DHT22;2695;49.444;11.054;2023-04-15T04:36:31;8.60;99.90
5346;DHT22;2695;49.444;11.054;2023-04-15T04:39:00;8.70;99.90
5346;DHT22;2695;49.444;11.054;2023-04-15T04:41:28;8.70;99.90
5346;DHT22;2695;49.444;11.054;2023-04-15T04:43:57;8.70;99.90
5346;DHT22;2695;49.444;11.054;2023-04-15T04:46:25;8.70;99.90
5346;DHT22;2695;49.444;11.054;2023-04-15T04:48:55;8.70;99.90
5346;DHT22;2695;49.444;11.054;2023-04-15T04:51:25;8.70;99.90
5346;DHT22;2695;49.444;11.054;2023-04-15T04:53:55;8.70;99.90
5346;DHT22;2695;49.444;11.054;2023-04-15T04:56:26;8.70;99.90
5346;DHT22;2695;49.444;11.054;2023-04-15T04:58:55;8.70;99.90
5346;DHT22;2695;49.444;11.054;2023-04-15T05:01:25;8.70;99.90
5346;DHT22;2695;49.444;11.054;2023-04-15T05:03:55;8.80;99.90
5346;DHT22;2695;49.444;11.054;2023-04-15T05:06:25;8.70;99.90
5346;DHT22;2695;49.444;11.054;2023-04-15T05:08:53;8.80;99.90
5346;DHT22;2695;49.444;11.054;2023-04-15T05:11:22;8.80;99.90
5346;DHT22;2695;49.444;11.054;2023-04-15T05:13:50;8.80;99.90
5346;DHT22;2695;49.444;11.054;2023-04-15T05:16:18;8.80;99.90
5346;DHT22;2695;49.444;11.054;2023-04-15T05:18:46;8.90;99.90
5346;DHT22;2695;49.444;11.054;2023-04-15T05:21:16;8.90;99.90
5346;DHT22;2695;49.444;11.054;2023-04-15T05:23:53;8.90;99.90
5346;DHT22;2695;49.444;11.054;2023-04-15T05:26:22;9.00;99.90
5346;DHT22;2695;49.444;11.054;2023-04-15T05:28:50;9.00;99.90
5346;DHT22;2695;49.444;11.054;2023-04-15T05:31:18;9.20;99.90
5346;DHT22;2695;49.444;11.054;2023-04-15T05:33:46;9.10;99.90
5346;DHT22;2695;49.444;11.054;2023-04-15T05:36:15;9.20;99.90
5346;DHT22;2695;49.444;11.054;2023-04-15T05:38:42;9.20;99.90
5346;DHT22;2695;49.444;11.054;2023-04-15T05:41:13;9.20;99.90
5346;DHT22;2695;49.444;11.054;2023-04-15T05:43:46;9.20;99.90
5346;DHT22;2695;49.444;11.054;2023-04-15T05:46:14;9.30;99.90
5346;DHT22;2695;49.444;11.054;2023-04-15T05:48:42;9.30;99.90
5346;DHT22;2695;49.444;11.054;2023-04-15T05:51:10;9.30;99.90
5346;DHT22;2695;49.444;11.054;2023-04-15T05:53:38;9.40;99.90
5346;DHT22;2695;49.444;11.054;2023-04-15T05:56:07;9.40;99.90
5346;DHT22;2695;49.444;11.054;2023-04-15T05:58:37;9.40;99.90
5346;DHT22;2695;49.444;11.054;2023-04-15T06:01:05;9.40;99.90
5346;DHT22;2695;49.444;11.054;2023-04-15T06:03:35;9.50;99.90
5346;DHT22;2695;49.444;11.054;2023-04-15T06:06:03;9.40;99.90
5346;DHT22;2695;49.444;11.054;2023-04-15T06:08:33;9.40;99.90
5346;DHT22;2695;49.444;11.054;2023-04-15T06:11:02;9.50;99.90
5346;DHT22;2695;49.444;11.054;2023-04-15T06:13:35;9.50;99.90
5346;DHT22;2695;49.444;11.054;2023-04-15T06:16:07;9.50;99.90
5346;DHT22;2695;49.444;11.054;2023-04-15T06:18:35;9.50;99.90
5346;DHT22;2695;49.444;11.054;2023-04-15T06:21:03;9.40;99.90
5346;DHT22;2695;49.444;11.054;2023-04-15T06:23:33;9.50;99.90
5346;DHT22;2695;49.444;11.054;2023-04-15T06:26:01;9.50;99.90
5346;DHT22;2695;49.444;11.054;2023-04-15T06:28:29;9.60;99.90
5346;DHT22;2695;49.444;11.054;2023-04-15T06:30:58;9.60;99.90
5346;DHT22;2695;49.444;11.054;2023-04-15T06:33:30;9.70;99.90
5346;DHT22;2695;49.444;11.054;2023-04-15T06:35:59;9.80;99.90
5346;DHT22;2695;49.444;11.054;2023-04-15T06:38:28;9.90;99.90
5346;DHT22;2695;49.444;11.054;2023-04-15T06:40:56;10.00;99.90
5346;DHT22;2695;49.444;11.054;2023-04-15T06:43:24;10.10;99.90
5346;DHT22;2695;49.444;11.054;2023-04-15T06:45:52;10.10;99.90
5346;DHT22;2695;49.444;11.054;2023-04-15T06:48:23;10.20;99.90
5346;DHT22;2695;49.444;11.054;2023-04-15T06:50:53;10.20;99.90
5346;DHT22;2695;49.444;11.054;2023-04-15T06:53:24;10.20;99.90
5346;DHT22;2695;49.444;11.054;2023-04-15T06:55:53;10.30;99.90
5346;DHT22;2695;49.444;11.054;2023-04-15T06:58:21;10.40;99.90
5346;DHT22;2695;49.444;11.054;2023-04-15T07:00:52;10.50;99.90
5346;DHT22;2695;49.444;11.054;2023-04-15T07:03:20;10.50;99.90
5346;DHT22;2695;49.444;11.054;2023-04-15T07:05:48;10.50;99.90
5346;DHT22;2695;49.444;11.054;2023-04-15T07:08:21;10.60;99.90
5346;DHT22;2695;49.444;11.054;2023-04-15T07:10:52;10.60;99.90
5346;DHT22;2695;49.444;11.054;2023-04-15T07:13:21;10.70;99.90
5346;DHT22;2695;49.444;11.054;2023-04-15T07:15:49;10.80;99.90
5346;DHT22;2695;49.444;11.054;2023-04-15T07:18:19;10.90;99.90
5346;DHT22;2695;49.444;11.054;2023-04-15T07:20:49;11.00;99.90
5346;DHT22;2695;49.444;11.054;2023-04-15T07:23:23;11.00;99.90
5346;DHT22;2695;49.444;11.054;2023-04-15T07:25:53;11.20;99.90
5346;DHT22;2695;49.444;11.054;2023-04-15T07:28:23;11.30;99.90
5346;DHT22;2695;49.444;11.054;2023-04-15T07:30:54;11.50;99.90
5346;DHT22;2695;49.444;11.054;2023-04-15T07:33:23;11.70;99.90
5346;DHT22;2695;49.444;11.054;2023-04-15T07:35:51;12.00;99.90
5346;DHT22;2695;49.444;11.054;2023-04-15T07:38:28;12.20;99.90
5346;DHT22;2695;49.444;11.054;2023-04-15T07:40:58;12.30;99.90
5346;DHT22;2695;49.444;11.054;2023-04-15T07:43:26;12.30;99.90
5346;DHT22;2695;49.444;11.054;2023-04-15T07:45:55;12.30;99.90
5346;DHT22;2695;49.444;11.054;2023-04-15T07:48:25;12.20;99.90
5346;DHT22;2695;49.444;11.054;2023-04-15T07:50:54;12.10;99.90
5346;DHT22;2695;49.444;11.054;2023-04-15T07:53:26;12.00;99.90
5346;DHT22;2695;49.444;11.054;2023-04-15T07:55:55;11.90;99.90
5346;DHT22;2695;49.444;11.054;2023-04-15T07:58:23;11.90;99.90
5346;DHT22;2695;49.444;11.054;2023-04-15T08:00:52;12.00;99.90
5346;DHT22;2695;49.444;11.054;2023-04-15T08:03:21;12.10;99.90
5346;DHT22;2695;49.444;11.054;2023-04-15T08:05:49;12.20;99.90
5346;DHT22;2695;49.444;11.054;2023-04-15T08:08:17;12.20;99.90
5346;DHT22;2695;49.444;11.054;2023-04-15T08:10:46;12.20;99.90
5346;DHT22;2695;49.444;11.054;2023-04-15T08:13:18;12.10;99.90
5346;DHT22;2695;49.444;11.054;2023-04-15T08:15:56;12.00;99.90
5346;DHT22;2695;49.444;11.054;2023-04-15T08:18:39;11.80;99.90
5346;DHT22;2695;49.444;11.054;2023-04-15T08:21:08;11.50;99.90
5346;DHT22;2695;49.444;11.054;2023-04-15T08:23:37;11.40;99.90
5346;DHT22;2695;49.444;11.054;2023-04-15T08:26:07;11.40;99.90
5346;DHT22;2695;49.444;11.054;2023-04-15T08:28:36;11.20;99.90
5346;DHT22;2695;49.444;11.054;2023-04-15T08:31:04;11.00;99.90
5346;DHT22;2695;49.444;11.054;2023-04-15T08:33:33;11.00;99.90
5346;DHT22;2695;49.444;11.054;2023-04-15T08:36:00;10.90;99.90
5346;DHT22;2695;49.444;11.054;2023-04-15T08:38:29;10.90;99.90
5346;DHT22;2695;49.444;11.054;2023-04-15T08:40:59;10.80;99.90
5346;DHT22;2695;49.444;11.054;2023-04-15T08:43:32;10.90;99.90
5346;DHT22;2695;49.444;11.054;2023-04-15T08:46:01;10.70;99.90
5346;DHT22;2695;49.444;11.054;2023-04-15T08:48:32;10.70;99.90
5346;DHT22;2695;49.444;11.054;2023-04-15T08:51:00;10.70;99.90
5346;DHT22;2695;49.444;11.054;2023-04-15T08:53:29;10.60;99.90
5346;DHT22;2695;49.444;11.054;2023-04-15T08:55:59;10.50;99.90
5346;DHT22;2695;49.444;11.054;2023-04-15T08:58:32;10.50;99.90
5346;DHT22;2695;49.444;11.054;2023-04-15T09:01:00;10.60;99.90
5346;DHT22;2695;49.444;11.054;2023-04-15T09:03:29;10.60;99.90
5346;DHT22;2695;49.444;11.054;2023-04-15T09:05:59;10.60;99.90
5346;DHT22;2695;49.444;11.054;2023-04-15T09:08:30;10.60;99.90
5346;DHT22;2695;49.444;11.054;2023-04-15T09:11:01;10.70;99.90
5346;DHT22;2695;49.444;11.054;2023-04-15T09:13:46;10.80;99.90
5346;DHT22;2695;49.444;11.054;2023-04-15T09:16:15;10.80;99.90
5346;DHT22;2695;49.444;11.054;2023-04-15T09:18:44;10.90;99.90
5346;DHT22;2695;49.444;11.054;2023-04-15T09:21:14;11.10;99.90
5346;DHT22;2695;49.444;11.054;2023-04-15T09:23:54;11.30;99.90
5346;DHT22;2695;49.444;11.054;2023-04-15T09:26:32;11.30;99.90
5346;DHT22;2695;49.444;11.054;2023-04-15T09:29:07;11.40;99.90
5346;DHT22;2695;49.444;11.054;2023-04-15T09:31:36;11.50;99.90
5346;DHT22;2695;49.444;11.054;2023-04-15T09:34:04;11.70;99.90
5346;DHT22;2695;49.444;11.054;2023-04-15T09:36:50;11.80;99.90
5346;DHT22;2695;49.444;11.054;2023-04-15T09:39:19;11.80;99.90
5346;DHT22;2695;49.444;11.054;2023-04-15T09:41:49;11.60;99.90
5346;DHT22;2695;49.444;11.054;2023-04-15T09:44:35;11.40;99.90
5346;DHT22;2695;49.444;11.054;2023-04-15T09:47:02;11.30;99.90
5346;DHT22;2695;49.444;11.054;2023-04-15T09:49:31;11.10;99.90
5346;DHT22;2695;49.444;11.054;2023-04-15T09:51:59;11.10;99.90
5346;DHT22;2695;49.444;11.054;2023-04-15T09:54:33;11.00;99.90
5346;DHT22;2695;49.444;11.054;2023-04-15T09:57:05;11.10;99.90
5346;DHT22;2695;49.444;11.054;2023-04-15T09:59:35;11.20;99.90
5346;DHT22;2695;49.444;11.054;2023-04-15T10:02:04;11.40;99.90
5346;DHT22;2695;49.444;11.054;2023-04-15T10:04:35;11.60;99.90
5346;DHT22;2695;49.444;11.054;2023-04-15T10:07:07;11.60;99.90
5346;DHT22;2695;49.444;11.054;2023-04-15T10:09:35;11.60;99.90
5346;DHT22;2695;49.444;11.054;2023-04-15T10:12:05;11.70;99.90
5346;DHT22;2695;49.444;11.054;2023-04-15T10:14:38;11.50;99.90
5346;DHT22;2695;49.444;11.054;2023-04-15T10:17:10;11.30;99.90
5346;DHT22;2695;49.444;11.054;2023-04-15T10:19:39;11.20;99.90
5346;DHT22;2695;49.444;11.054;2023-04-15T10:22:08;11.00;99.90
5346;DHT22;2695;49.444;11.054;2023-04-15T10:24:38;10.80;99.90
5346;DHT22;2695;49.444;11.054;2023-04-15T10:27:07;10.50;99.90
5346;DHT22;2695;49.444;11.054;2023-04-15T10:29:36;10.30;99.90
5346;DHT22;2695;49.444;11.054;2023-04-15T10:32:06;10.30;99.90
5346;DHT22;2695;49.444;11.054;2023-04-15T10:34:35;10.20;99.90
5346;DHT22;2695;49.444;11.054;2023-04-15T10:40:51;10.10;99.90
5346;DHT22;2695;49.444;11.054;2023-04-15T10:43:24;10.10;99.90
5346;DHT22;2695;49.444;11.054;2023-04-15T10:45:59;10.10;99.90
5346;DHT22;2695;49.444;11.054;2023-04-15T10:48:33;10.00;99.90
5346;DHT22;2695;49.444;11.054;2023-04-15T10:51:02;10.00;99.90
5346;DHT22;2695;49.444;11.054;2023-04-15T10:53:33;10.00;99.90
5346;DHT22;2695;49.444;11.054;2023-04-15T10:56:04;10.20;99.90
5346;DHT22;2695;49.444;11.054;2023-04-15T10:58:40;10.50;99.90
5346;DHT22;2695;49.444;11.054;2023-04-15T11:01:08;10.70;99.90
5346;DHT22;2695;49.444;11.054;2023-04-15T11:03:39;11.00;99.90
5346;DHT22;2695;49.444;11.054;2023-04-15T11:06:10;11.50;99.90
5346;DHT22;2695;49.444;11.054;2023-04-15T11:08:55;12.20;99.90
5346;DHT22;2695;49.444;11.054;2023-04-15T11:14:32;12.60;99.90
5346;DHT22;2695;49.444;11.054;2023-04-15T11:17:02;12.80;99.90
5346;DHT22;2695;49.444;11.054;2023-04-15T11:19:37;12.90;99.90
5346;DHT22;2695;49.444;11.054;2023-04-15T11:22:16;12.80;99.90
5346;DHT22;2695;49.444;11.054;2023-04-15T11:24:49;12.70;99.90
5346;DHT22;2695;49.444;11.054;2023-04-15T11:27:25;12.50;99.90
5346;DHT22;2695;49.444;11.054;2023-04-15T11:29:59;12.20;99.90
5346;DHT22;2695;49.444;11.054;2023-04-15T11:32:28;12.10;99.90
5346;DHT22;2695;49.444;11.054;2023-04-15T11:34:59;11.90;99.90
5346;DHT22;2695;49.444;11.054;2023-04-15T11:37:28;11.70;99.90
5346;DHT22;2695;49.444;11.054;2023-04-15T11:39:57;11.50;99.90
5346;DHT22;2695;49.444;11.054;2023-04-15T11:42:25;11.40;99.90
5346;DHT22;2695;49.444;11.054;2023-04-15T11:45:15;11.30;99.90
5346;DHT22;2695;49.444;11.054;2023-04-15T11:47:44;11.10;99.90
5346;DHT22;2695;49.444;11.054;2023-04-15T11:50:21;11.00;99.90
5346;DHT22;2695;49.444;11.054;2023-04-15T11:52:53;11.00;99.90
5346;DHT22;2695;49.444;11.054;2023-04-15T11:55:22;11.00;99.90
5346;DHT22;2695;49.444;11.054;2023-04-15T11:58:09;11.10;99.90
5346;DHT22;2695;49.444;11.054;2023-04-15T12:00:45;11.10;99.90
5346;DHT22;2695;49.444;11.054;2023-04-15T12:03:22;11.10;99.90
5346;DHT22;2695;49.444;11.054;2023-04-15T12:06:13;11.20;99.90
5346;DHT22;2695;49.444;11.054;2023-04-15T12:09:00;11.10;99.90
5346;DHT22;2695;49.444;11.054;2023-04-15T12:11:34;11.20;99.90
5346;DHT22;2695;49.444;11.054;2023-04-15T12:14:05;11.30;99.90
5346;DHT22;2695;49.444;11.054;2023-04-15T12:16:35;11.30;99.90
5346;DHT22;2695;49.444;11.054;2023-04-15T12:19:17;11.30;99.90
5346;DHT22;2695;49.444;11.054;2023-04-15T12:21:50;11.10;99.90
5346;DHT22;2695;49.444;11.054;2023-04-15T12:24:20;11.10;99.90
5346;DHT22;2695;49.444;11.054;2023-04-15T12:26:56;11.00;99.90
5346;DHT22;2695;49.444;11.054;2023-04-15T12:29:41;11.00;99.90
5346;DHT22;2695;49.444;11.054;2023-04-15T12:32:14;11.00;99.90
5346;DHT22;2695;49.444;11.054;2023-04-15T12:34:49;11.00;99.90
5346;DHT22;2695;49.444;11.054;2023-04-15T12:37:19;11.00;99.90
5346;DHT22;2695;49.444;11.054;2023-04-15T12:39:48;11.00;99.90
5346;DHT22;2695;49.444;11.054;2023-04-15T12:42:17;11.00;99.90
5346;DHT22;2695;49.444;11.054;2023-04-15T12:44:45;11.00;99.90
5346;DHT22;2695;49.444;11.054;2023-04-15T12:47:13;10.90;99.90
5346;DHT22;2695;49.444;11.054;2023-04-15T12:49:41;10.90;99.90
5346;DHT22;2695;49.444;11.054;2023-04-15T12:52:09;11.00;99.90
5346;DHT22;2695;49.444;11.054;2023-04-15T12:54:40;10.90;99.90
5346;DHT22;2695;49.444;11.054;2023-04-15T12:57:08;10.90;99.90
5346;DHT22;2695;49.444;11.054;2023-04-15T12:59:36;10.90;99.90
5346;DHT22;2695;49.444;11.054;2023-04-15T13:02:06;11.00;99.90
5346;DHT22;2695;49.444;11.054;2023-04-15T13:04:43;11.00;99.90
5346;DHT22;2695;49.444;11.054;2023-04-15T13:07:26;11.10;99.90
5346;DHT22;2695;49.444;11.054;2023-04-15T13:10:03;11.30;99.90
5346;DHT22;2695;49.444;11.054;2023-04-15T13:12:34;11.50;99.90
5346;DHT22;2695;49.444;11.054;2023-04-15T13:15:03;11.60;99.90
5346;DHT22;2695;49.444;11.054;2023-04-15T13:17:35;11.60;99.90
5346;DHT22;2695;49.444;11.054;2023-04-15T13:20:03;11.50;99.90
5346;DHT22;2695;49.444;11.054;2023-04-15T13:22:32;11.40;99.90
5346;DHT22;2695;49.444;11.054;2023-04-15T13:25:00;11.40;99.90
5346;DHT22;2695;49.444;11.054;2023-04-15T13:27:29;11.30;99.90
5346;DHT22;2695;49.444;11.054;2023-04-15T13:29:58;11.30;99.90
5346;DHT22;2695;49.444;11.054;2023-04-15T13:32:26;11.30;99.90
5346;DHT22;2695;49.444;11.054;2023-04-15T13:34:54;11.40;99.90
5346;DHT22;2695;49.444;11.054;2023-04-15T13:37:25;11.40;99.90
5346;DHT22;2695;49.444;11.054;2023-04-15T13:39:53;11.40;99.90
5346;DHT22;2695;49.444;11.054;2023-04-15T13:42:21;11.40;99.90
5346;DHT22;2695;49.444;11.054;2023-04-15T13:44:50;11.30;99.90
5346;DHT22;2695;49.444;11.054;2023-04-15T13:47:18;11.20;99.90
5346;DHT22;2695;49.444;11.054;2023-04-15T13:49:47;11.20;99.90
5346;DHT22;2695;49.444;11.054;2023-04-15T13:52:15;11.20;99.90
5346;DHT22;2695;49.444;11.054;2023-04-15T13:54:43;11.10;99.90
5346;DHT22;2695;49.444;11.054;2023-04-15T13:57:33;11.20;99.90
5346;DHT22;2695;49.444;11.054;2023-04-15T14:00:03;11.20;99.90
5346;DHT22;2695;49.444;11.054;2023-04-15T14:02:32;11.10;99.90
5346;DHT22;2695;49.444;11.054;2023-04-15T14:05:00;11.10;99.90
5346;DHT22;2695;49.444;11.054;2023-04-15T14:07:30;11.20;99.90
5346;DHT22;2695;49.444;11.054;2023-04-15T14:09:59;11.20;99.90
5346;DHT22;2695;49.444;11.054;2023-04-15T14:12:30;11.30;99.90
5346;DHT22;2695;49.444;11.054;2023-04-15T14:14:58;11.40;99.90
5346;DHT22;2695;49.444;11.054;2023-04-15T14:17:28;11.50;99.90
5346;DHT22;2695;49.444;11.054;2023-04-15T14:19:56;11.60;99.90
5346;DHT22;2695;49.444;11.054;2023-04-15T14:22:24;11.50;99.90
5346;DHT22;2695;49.444;11.054;2023-04-15T14:24:57;11.40;99.90
5346;DHT22;2695;49.444;11.054;2023-04-15T14:27:30;11.30;99.90
5346;DHT22;2695;49.444;11.054;2023-04-15T14:29:59;11.20;99.90
5346;DHT22;2695;49.444;11.054;2023-04-15T14:32:28;11.10;99.90
5346;DHT22;2695;49.444;11.054;2023-04-15T14:34:56;11.00;99.90
5346;DHT22;2695;49.444;11.054;2023-04-15T14:37:25;10.90;99.90
5346;DHT22;2695;49.444;11.054;2023-04-15T14:39:54;10.90;99.90
5346;DHT22;2695;49.444;11.054;2023-04-15T14:42:22;10.80;99.90
5346;DHT22;2695;49.444;11.054;2023-04-15T14:44:51;10.80;99.90
5346;DHT22;2695;49.444;11.054;2023-04-15T14:47:18;10.80;99.90
5346;DHT22;2695;49.444;11.054;2023-04-15T14:49:48;10.90;99.90
5346;DHT22;2695;49.444;11.054;2023-04-15T14:52:16;10.90;99.90
5346;DHT22;2695;49.444;11.054;2023-04-15T14:54:45;10.90;99.90
5346;DHT22;2695;49.444;11.054;2023-04-15T14:57:16;10.90;99.90
5346;DHT22;2695;49.444;11.054;2023-04-15T15:00:00;10.90;99.90
5346;DHT22;2695;49.444;11.054;2023-04-15T15:02:29;10.80;99.90
5346;DHT22;2695;49.444;11.054;2023-04-15T15:05:08;10.90;99.90
5346;DHT22;2695;49.444;11.054;2023-04-15T15:07:38;10.90;99.90
5346;DHT22;2695;49.444;11.054;2023-04-15T15:10:07;10.90;99.90
5346;DHT22;2695;49.444;11.054;2023-04-15T15:13:05;10.90;99.90
5346;DHT22;2695;49.444;11.054;2023-04-15T15:15:36;10.90;99.90
5346;DHT22;2695;49.444;11.054;2023-04-15T15:18:04;10.80;99.90
5346;DHT22;2695;49.444;11.054;2023-04-15T15:20:33;10.80;99.90
5346;DHT22;2695;49.444;11.054;2023-04-15T15:23:01;10.80;99.90
5346;DHT22;2695;49.444;11.054;2023-04-15T15:25:29;10.80;99.90
5346;DHT22;2695;49.444;11.054;2023-04-15T15:27:58;10.80;99.90
5346;DHT22;2695;49.444;11.054;2023-04-15T15:30:26;10.70;99.90
5346;DHT22;2695;49.444;11.054;2023-04-15T15:32:54;10.70;99.90
5346;DHT22;2695;49.444;11.054;2023-04-15T15:35:24;10.60;99.90
5346;DHT22;2695;49.444;11.054;2023-04-15T15:37:55;10.60;99.90
5346;DHT22;2695;49.444;11.054;2023-04-15T15:40:23;10.60;99.90
5346;DHT22;2695;49.444;11.054;2023-04-15T15:42:51;10.50;99.90
5346;DHT22;2695;49.444;11.054;2023-04-15T15:45:21;10.50;99.90
5346;DHT22;2695;49.444;11.054;2023-04-15T15:47:49;10.40;99.90
5346;DHT22;2695;49.444;11.054;2023-04-15T15:50:17;10.40;99.90
5346;DHT22;2695;49.444;11.054;2023-04-15T15:52:45;10.40;99.90
5346;DHT22;2695;49.444;11.054;2023-04-15T15:55:14;10.40;99.90
5346;DHT22;2695;49.444;11.054;2023-04-15T15:57:42;10.30;99.90
5346;DHT22;2695;49.444;11.054;2023-04-15T16:00:11;10.40;99.90
5346;DHT22;2695;49.444;11.054;2023-04-15T16:02:42;10.40;99.90
5346;DHT22;2695;49.444;11.054;2023-04-15T16:05:13;10.40;99.90
5346;DHT22;2695;49.444;11.054;2023-04-15T16:07:42;10.40;99.90
5346;DHT22;2695;49.444;11.054;2023-04-15T16:10:10;10.40;99.90
5346;DHT22;2695;49.444;11.054;2023-04-15T16:12:43;10.40;99.90
5346;DHT22;2695;49.444;11.054;2023-04-15T16:15:12;10.30;99.90
5346;DHT22;2695;49.444;11.054;2023-04-15T16:17:48;10.20;99.90
5346;DHT22;2695;49.444;11.054;2023-04-15T16:20:18;10.10;99.90
5346;DHT22;2695;49.444;11.054;2023-04-15T16:22:46;10.20;99.90
5346;DHT22;2695;49.444;11.054;2023-04-15T16:25:14;10.10;99.90